Time;durP1;ratioP1;P1;durP2;ratioP2;P2;SDS_P1;SDS_P2;PMS_P1;PMS_P2;Temp;Humidity;BMP_temperature;BMP_pressure;BME280_temperature;BME280_humidity;BME280_pressure;Samples;Min_cycle;Max_cycle;Signal;HPM_P1;HPM_P2
2020/12/10 00:01:01;;;;;;;29.90;15.68;;;2.20;99.90;;;;;;4161224;28;20045;-70
2020/12/10 00:03:01;;;;;;;27.63;14.70;;;2.20;99.90;;;;;;4158943;28;20076;-70
2020/12/10 00:05:03;;;;;;;31.90;15.68;;;2.30;99.90;;;;;;4160078;28;20025;-70
2020/12/10 00:07:04;;;;;;;35.13;18.77;;;2.20;99.90;;;;;;4159616;28;20036;-71
2020/12/10 00:09:04;;;;;;;31.92;16.85;;;2.20;99.90;;;;;;4160215;28;20480;-70
2020/12/10 00:11:07;;;;;;;31.70;16.77;;;2.20;99.90;;;;;;4160146;28;20060;-70
2020/12/10 00:13:07;;;;;;;36.58;19.10;;;2.20;99.90;;;;;;4161601;28;20112;-71
2020/12/10 00:15:09;;;;;;;33.30;18.27;;;2.10;99.90;;;;;;4143486;28;20589;-70
2020/12/10 00:17:10;;;;;;;30.95;16.58;;;2.10;99.90;;;;;;4158919;28;20033;-70
2020/12/10 00:19:10;;;;;;;33.22;16.83;;;2.00;99.90;;;;;;4160991;28;20082;-70
2020/12/10 00:21:11;;;;;;;33.15;17.42;;;1.90;99.90;;;;;;4161406;28;20121;-70
2020/12/10 00:23:11;;;;;;;29.30;15.98;;;1.90;99.90;;;;;;4159638;28;20030;-70
2020/12/10 00:25:12;;;;;;;31.65;16.40;;;1.90;99.90;;;;;;4159636;28;20120;-70
2020/12/10 00:27:15;;;;;;;;;;;2.00;99.90;;;;;;4157053;28;20061;-70
2020/12/10 00:29:17;;;;;;;32.72;16.77;;;1.90;99.90;;;;;;4160706;28;19925;-70
2020/12/10 00:31:18;;;;;;;30.40;16.33;;;1.80;99.90;;;;;;4161374;28;20026;-70
2020/12/10 00:33:18;;;;;;;36.38;17.60;;;1.80;99.90;;;;;;4161033;28;20022;-71
2020/12/10 00:35:19;;;;;;;32.78;16.15;;;1.80;99.90;;;;;;4158490;28;20030;-70
2020/12/10 00:37:19;;;;;;;29.88;15.75;;;1.80;99.90;;;;;;4160052;28;20567;-70
2020/12/10 00:39:20;;;;;;;31.05;16.38;;;1.80;99.90;;;;;;4161415;28;20050;-70
2020/12/10 00:41:21;;;;;;;32.63;17.35;;;1.80;99.90;;;;;;4160421;28;20045;-70
2020/12/10 00:43:21;;;;;;;34.25;17.58;;;1.80;99.90;;;;;;4157502;28;20385;-71
2020/12/10 00:45:22;;;;;;;30.85;16.52;;;1.80;99.90;;;;;;4159542;28;20041;-70
2020/12/10 00:47:22;;;;;;;30.55;16.15;;;1.80;99.90;;;;;;4160933;28;20045;-70
2020/12/10 00:49:23;;;;;;;34.17;16.83;;;1.80;99.90;;;;;;4161072;28;20033;-71
2020/12/10 00:51:24;;;;;;;32.05;16.25;;;1.70;99.90;;;;;;4160168;28;20033;-70
2020/12/10 00:53:24;;;;;;;29.75;16.73;;;1.70;99.90;;;;;;4159639;28;20034;-70
2020/12/10 00:55:25;;;;;;;30.05;15.85;;;1.70;99.90;;;;;;4160461;28;20056;-70
2020/12/10 00:57:26;;;;;;;32.55;16.90;;;1.70;99.90;;;;;;4160378;28;20116;-70
2020/12/10 00:59:26;;;;;;;33.03;17.95;;;1.60;99.90;;;;;;4157185;28;20041;-70
2020/12/10 01:01:27;;;;;;;34.42;16.50;;;1.60;99.90;;;;;;4160135;28;20204;-70
2020/12/10 01:03:28;;;;;;;35.25;17.17;;;1.60;99.90;;;;;;4159708;28;20176;-70
2020/12/10 01:05:29;;;;;;;31.02;15.98;;;1.60;99.90;;;;;;4159915;28;20026;-70
2020/12/10 01:07:30;;;;;;;29.50;16.67;;;1.50;99.90;;;;;;4158005;28;20032;-70
2020/12/10 01:09:30;;;;;;;26.55;14.75;;;1.60;99.90;;;;;;4158402;28;20038;-70
2020/12/10 01:11:31;;;;;;;28.00;15.05;;;1.60;99.90;;;;;;4157852;28;20105;-70
2020/12/10 01:13:32;;;;;;;28.45;15.35;;;1.70;99.90;;;;;;4157538;28;20053;-70
2020/12/10 01:15:32;;;;;;;31.42;16.38;;;1.60;99.90;;;;;;4157268;28;20111;-70
2020/12/10 01:17:33;;;;;;;31.58;17.25;;;1.70;99.90;;;;;;4160476;28;20029;-70
2020/12/10 01:19:34;;;;;;;32.05;16.13;;;1.70;99.90;;;;;;4160463;28;20033;-70
2020/12/10 01:21:35;;;;;;;29.17;15.43;;;1.70;99.90;;;;;;4158076;28;20076;-70
2020/12/10 01:23:36;;;;;;;28.95;15.88;;;1.70;99.90;;;;;;4160348;28;20382;-70
2020/12/10 01:25:36;;;;;;;32.58;16.15;;;1.70;99.90;;;;;;4160611;28;20025;-70
2020/12/10 01:27:37;;;;;;;29.33;16.00;;;1.60;99.90;;;;;;4159647;28;20120;-70
2020/12/10 01:29:38;;;;;;;33.00;17.92;;;1.70;99.90;;;;;;4160164;28;20044;-70
2020/12/10 01:31:38;;;;;;;31.30;17.15;;;1.70;99.90;;;;;;4155099;28;20060;-71
2020/12/10 01:33:39;;;;;;;32.88;16.55;;;1.70;99.90;;;;;;4160306;28;20441;-70
2020/12/10 01:35:40;;;;;;;30.42;16.25;;;1.70;99.90;;;;;;4158689;28;20121;-70
2020/12/10 01:37:40;;;;;;;27.05;14.93;;;1.60;99.90;;;;;;4159972;28;20064;-70
2020/12/10 01:39:41;;;;;;;29.33;15.10;;;1.70;99.90;;;;;;4160818;28;20041;-70
2020/12/10 01:41:41;;;;;;;29.98;15.65;;;1.70;99.90;;;;;;4154590;28;20125;-70
2020/12/10 01:43:43;;;;;;;32.28;16.65;;;1.70;99.90;;;;;;4158125;28;20029;-70
2020/12/10 01:45:43;;;;;;;29.75;16.23;;;1.70;99.90;;;;;;4158688;28;20029;-70
2020/12/10 01:47:44;;;;;;;32.85;17.08;;;1.70;99.90;;;;;;4157011;28;20040;-70
2020/12/10 01:49:48;;;;;;;25.98;14.82;;;1.70;99.90;;;;;;4160082;28;20030;-70
2020/12/10 01:51:48;;;;;;;30.88;16.40;;;1.70;99.90;;;;;;4159563;28;20034;-70
2020/12/10 01:53:55;;;;;;;28.77;15.07;;;1.70;99.90;;;;;;4158725;28;20104;-71
2020/12/10 01:55:56;;;;;;;28.52;15.40;;;1.70;99.90;;;;;;4160330;28;20034;-70
2020/12/10 01:57:59;;;;;;;30.65;16.85;;;1.60;99.90;;;;;;4160720;28;20384;-70
2020/12/10 02:00:00;;;;;;;32.17;16.35;;;1.70;99.90;;;;;;4159508;28;20167;-70
2020/12/10 02:02:00;;;;;;;28.63;16.48;;;1.60;99.90;;;;;;4141672;28;20045;-70
2020/12/10 02:04:01;;;;;;;33.97;16.02;;;1.60;99.90;;;;;;4159583;28;20029;-70
2020/12/10 02:06:02;;;;;;;32.72;16.17;;;1.60;99.90;;;;;;4160577;28;20035;-70
2020/12/10 02:08:02;;;;;;;35.38;17.27;;;1.60;99.90;;;;;;4158924;28;20037;-70
2020/12/10 02:10:03;;;;;;;27.98;15.20;;;1.50;99.90;;;;;;4160383;28;20048;-70
2020/12/10 02:12:04;;;;;;;30.27;15.40;;;1.60;99.90;;;;;;4157383;28;20036;-70
2020/12/10 02:14:06;;;;;;;;;;;1.60;99.90;;;;;;4158042;28;20038;-70
2020/12/10 02:16:08;;;;;;;30.40;14.80;;;1.60;99.90;;;;;;4154267;28;20434;-70
2020/12/10 02:18:13;;;;;;;32.33;16.80;;;1.50;99.90;;;;;;4158131;28;20030;-70
2020/12/10 02:20:13;;;;;;;30.23;15.65;;;1.50;99.90;;;;;;4153304;28;20060;-70
2020/12/10 02:22:14;;;;;;;29.42;16.70;;;1.50;99.90;;;;;;4159157;28;20033;-70
2020/12/10 02:24:15;;;;;;;34.67;17.48;;;1.50;99.90;;;;;;4159924;28;20461;-70
2020/12/10 02:26:20;;;;;;;30.80;15.82;;;1.50;99.90;;;;;;4159154;28;20030;-70
2020/12/10 02:28:21;;;;;;;28.33;14.85;;;1.50;99.90;;;;;;4154108;28;20079;-70
2020/12/10 02:30:22;;;;;;;30.48;15.15;;;1.50;99.90;;;;;;4159145;28;20049;-70
2020/12/10 02:32:22;;;;;;;29.25;15.82;;;1.50;99.90;;;;;;4159390;28;20047;-70
2020/12/10 02:34:24;;;;;;;30.67;16.25;;;1.40;99.90;;;;;;4159311;28;20036;-70
2020/12/10 02:36:25;;;;;;;36.10;18.77;;;1.40;99.90;;;;;;4155724;28;20136;-70
2020/12/10 02:38:25;;;;;;;32.45;16.38;;;1.40;99.90;;;;;;4157676;28;20240;-70
2020/12/10 02:40:29;;;;;;;31.67;17.02;;;1.40;99.90;;;;;;4159679;28;20041;-70
2020/12/10 02:42:30;;;;;;;32.05;17.05;;;1.40;99.90;;;;;;4159406;28;20125;-70
2020/12/10 02:44:30;;;;;;;31.90;17.42;;;1.40;99.90;;;;;;4159611;28;20497;-70
2020/12/10 02:46:31;;;;;;;31.95;16.52;;;1.40;99.90;;;;;;4159070;28;20195;-70
2020/12/10 02:48:32;;;;;;;29.02;15.48;;;1.40;99.90;;;;;;4162077;28;20041;-70
2020/12/10 02:50:32;;;;;;;28.38;15.48;;;1.40;99.90;;;;;;4162945;28;20060;-70
2020/12/10 02:52:33;;;;;;;34.40;17.40;;;1.40;99.90;;;;;;4152417;28;20044;-70
2020/12/10 02:54:33;;;;;;;30.90;16.48;;;1.40;99.90;;;;;;4162532;28;20060;-70
2020/12/10 02:56:34;;;;;;;30.05;16.63;;;1.30;99.90;;;;;;4161172;28;20053;-70
2020/12/10 02:58:36;;;;;;;34.40;17.95;;;1.30;99.90;;;;;;4160411;28;20041;-70
2020/12/10 03:00:36;;;;;;;31.97;16.27;;;1.30;99.90;;;;;;4144603;28;20034;-70
2020/12/10 03:02:38;;;;;;;31.33;17.23;;;1.40;99.90;;;;;;4156828;23;20322;-70
2020/12/10 03:04:38;;;;;;;30.88;16.75;;;1.40;99.90;;;;;;4166803;28;20481;-70
2020/12/10 03:06:39;;;;;;;30.17;16.30;;;1.40;99.90;;;;;;4163009;28;20029;-70
2020/12/10 03:08:40;;;;;;;35.45;17.13;;;1.30;99.90;;;;;;4160910;28;20497;-70
2020/12/10 03:10:41;;;;;;;36.90;17.85;;;1.40;99.90;;;;;;4161992;28;20037;-70
2020/12/10 03:12:41;;;;;;;32.33;16.52;;;1.30;99.90;;;;;;4164097;28;20076;-70
2020/12/10 03:14:42;;;;;;;27.52;15.88;;;1.40;99.90;;;;;;4161772;28;20036;-70
2020/12/10 03:16:42;;;;;;;30.67;16.42;;;1.40;99.90;;;;;;4161557;28;20297;-70
2020/12/10 03:18:43;;;;;;;34.63;17.75;;;1.40;99.90;;;;;;4160478;28;20046;-70
2020/12/10 03:20:44;;;;;;;33.05;17.70;;;1.40;99.90;;;;;;4161624;28;20474;-70
2020/12/10 03:22:44;;;;;;;35.08;18.08;;;1.40;99.90;;;;;;4163423;28;20103;-70
2020/12/10 03:24:45;;;;;;;32.95;17.45;;;1.40;99.90;;;;;;4142317;28;20030;-70
2020/12/10 03:26:46;;;;;;;29.65;16.48;;;1.40;99.90;;;;;;4162555;28;20029;-70
2020/12/10 03:28:47;;;;;;;31.30;15.82;;;1.40;99.90;;;;;;4161363;28;20029;-70
2020/12/10 03:30:49;;;;;;;37.22;19.35;;;1.40;99.90;;;;;;4167981;28;20124;-70
2020/12/10 03:32:49;;;;;;;30.77;16.60;;;1.40;99.90;;;;;;4162158;28;20040;-70
2020/12/10 03:34:50;;;;;;;33.60;17.13;;;1.30;99.90;;;;;;4161761;28;20033;-70
2020/12/10 03:36:56;;;;;;;30.98;16.88;;;1.40;99.90;;;;;;4164735;28;20033;-70
2020/12/10 03:38:57;;;;;;;35.47;18.58;;;1.40;99.90;;;;;;4164495;28;20492;-70
2020/12/10 03:40:58;;;;;;;27.65;15.13;;;1.40;99.90;;;;;;4160019;28;20040;-70
2020/12/10 03:42:58;;;;;;;27.17;14.98;;;1.40;99.90;;;;;;4160937;28;20369;-70
2020/12/10 03:44:59;;;;;;;30.70;15.93;;;1.40;99.90;;;;;;4161437;28;20489;-70
2020/12/10 03:47:00;;;;;;;27.83;15.00;;;1.40;99.90;;;;;;4155561;28;20041;-70
2020/12/10 03:49:01;;;;;;;28.10;14.93;;;1.40;99.90;;;;;;4165295;28;21131;-70
2020/12/10 03:51:01;;;;;;;29.60;15.95;;;1.40;99.90;;;;;;4163172;28;20025;-70
2020/12/10 03:53:02;;;;;;;30.63;16.52;;;1.40;99.90;;;;;;4167376;28;20017;-70
2020/12/10 03:55:02;;;;;;;32.47;17.15;;;1.40;99.90;;;;;;4162001;28;20059;-70
2020/12/10 03:57:03;;;;;;;30.58;17.00;;;1.40;99.90;;;;;;4161288;28;20087;-70
2020/12/10 03:59:05;;;;;;;31.48;17.40;;;1.40;99.90;;;;;;4159866;28;20548;-70
2020/12/10 04:01:06;;;;;;;30.60;16.55;;;1.40;99.90;;;;;;4160327;28;20081;-70
2020/12/10 04:03:06;;;;;;;32.55;16.88;;;1.50;99.90;;;;;;4160344;28;20048;-70
2020/12/10 04:05:08;;;;;;;33.15;16.98;;;1.50;99.90;;;;;;4158732;28;20030;-70
2020/12/10 04:07:08;;;;;;;34.80;18.75;;;1.40;99.90;;;;;;4164338;28;20025;-70
2020/12/10 04:09:10;;;;;;;34.60;17.75;;;1.40;99.90;;;;;;4158337;28;20040;-70
2020/12/10 04:11:11;;;;;;;35.17;18.10;;;1.40;99.90;;;;;;4153508;28;20386;-70
2020/12/10 04:13:11;;;;;;;31.50;16.85;;;1.40;99.90;;;;;;4161906;28;20094;-70
2020/12/10 04:15:12;;;;;;;33.15;18.33;;;1.40;99.90;;;;;;4163024;28;20033;-70
2020/12/10 04:17:13;;;;;;;34.65;19.33;;;1.30;99.90;;;;;;4160539;28;20033;-70
2020/12/10 04:19:13;;;;;;;34.47;18.38;;;1.30;99.90;;;;;;4160052;28;20034;-70
2020/12/10 04:21:14;;;;;;;32.90;17.58;;;1.30;99.90;;;;;;4159364;28;20056;-70
2020/12/10 04:23:15;;;;;;;33.88;18.02;;;1.30;99.90;;;;;;4157934;28;20489;-70
2020/12/10 04:25:15;;;;;;;32.58;17.80;;;1.30;99.90;;;;;;4161810;28;20045;-70
2020/12/10 04:27:16;;;;;;;35.70;18.67;;;1.30;99.90;;;;;;4166642;28;20037;-70
2020/12/10 04:29:16;;;;;;;29.88;17.35;;;1.30;99.90;;;;;;4158919;28;20038;-70
2020/12/10 04:31:17;;;;;;;33.05;17.77;;;1.30;99.90;;;;;;4164511;28;20032;-70
2020/12/10 04:33:18;;;;;;;29.17;16.63;;;1.30;99.90;;;;;;4158917;28;20064;-70
2020/12/10 04:35:19;;;;;;;31.65;17.38;;;1.30;99.90;;;;;;4142852;28;20022;-70
2020/12/10 04:37:19;;;;;;;34.90;18.25;;;1.30;99.90;;;;;;4159109;28;20556;-70
2020/12/10 04:39:20;;;;;;;32.28;17.38;;;1.30;99.90;;;;;;4161197;28;20030;-70
2020/12/10 04:41:20;;;;;;;31.05;16.73;;;1.30;99.90;;;;;;4159862;28;20033;-70
2020/12/10 04:43:26;;;;;;;30.58;16.38;;;1.30;99.90;;;;;;4166245;28;20036;-70
2020/12/10 04:45:27;;;;;;;29.88;16.63;;;1.30;99.90;;;;;;4155644;28;20037;-70
2020/12/10 04:47:29;;;;;;;33.05;17.13;;;1.30;99.90;;;;;;4160159;28;20029;-70
2020/12/10 04:49:30;;;;;;;30.00;15.95;;;1.40;99.90;;;;;;4159837;28;20021;-70
2020/12/10 04:51:33;;;;;;;34.75;18.20;;;1.30;99.90;;;;;;4159449;28;20029;-70
2020/12/10 04:53:34;;;;;;;30.50;16.38;;;1.30;99.90;;;;;;4160158;28;20292;-70
2020/12/10 04:55:35;;;;;;;30.08;16.33;;;1.30;99.90;;;;;;4157298;28;20045;-70
2020/12/10 04:57:39;;;;;;;32.80;17.23;;;1.30;99.90;;;;;;4158759;28;20362;-70
2020/12/10 04:59:39;;;;;;;31.48;16.63;;;1.40;99.90;;;;;;4159693;28;20040;-70
2020/12/10 05:01:43;;;;;;;33.20;17.48;;;1.40;99.90;;;;;;4153879;28;20153;-70
2020/12/10 05:03:45;;;;;;;33.75;17.52;;;1.30;99.90;;;;;;4165949;28;20485;-70
2020/12/10 05:05:46;;;;;;;31.00;16.98;;;1.30;99.90;;;;;;4161664;28;20025;-70
2020/12/10 05:07:47;;;;;;;35.65;17.92;;;1.40;99.90;;;;;;4163323;28;22225;-70
2020/12/10 05:09:57;;;;;;;34.40;17.88;;;1.40;99.90;;;;;;4156708;28;20040;-70
2020/12/10 05:11:57;;;;;;;33.75;17.98;;;1.30;99.90;;;;;;4157682;28;20374;-70
2020/12/10 05:13:58;;;;;;;34.13;17.38;;;1.40;99.90;;;;;;4167350;28;20087;-70
2020/12/10 05:15:58;;;;;;;30.55;17.38;;;1.40;99.90;;;;;;4158353;28;20029;-70
2020/12/10 05:18:07;;;;;;;36.38;17.95;;;1.40;99.90;;;;;;4156662;28;20034;-71
2020/12/10 05:20:08;;;;;;;34.65;18.92;;;1.40;99.90;;;;;;4162597;28;20022;-70
2020/12/10 05:22:10;;;;;;;34.05;17.70;;;1.40;99.90;;;;;;4159356;28;20405;-70
2020/12/10 05:24:19;;;;;;;40.80;20.37;;;1.40;99.90;;;;;;4163394;28;20048;-70
2020/12/10 05:26:19;;;;;;;41.53;19.63;;;1.40;99.90;;;;;;4156686;28;20038;-70
2020/12/10 05:28:22;;;;;;;29.10;17.17;;;1.30;99.90;;;;;;4162716;28;20052;-70
2020/12/10 05:30:22;;;;;;;;;;;1.40;99.90;;;;;;4142669;28;20445;-70
2020/12/10 05:32:32;;;;;;;28.38;15.38;;;1.30;99.90;;;;;;4158618;28;20004;-70
2020/12/10 05:34:33;;;;;;;33.78;17.58;;;1.40;99.90;;;;;;4164367;28;20032;-70
2020/12/10 05:36:33;;;;;;;33.72;18.67;;;1.40;99.90;;;;;;4163226;28;20093;-70
2020/12/10 05:38:51;;;;;;;32.70;17.67;;;1.40;99.90;;;;;;4163442;28;20473;-70
2020/12/10 05:40:51;;;;;;;33.22;18.45;;;1.40;99.90;;;;;;4158407;28;20053;-70
2020/12/10 05:42:52;;;;;;;36.25;19.52;;;1.40;99.90;;;;;;4170140;28;20029;-70
2020/12/10 05:44:52;;;;;;;36.55;18.65;;;1.40;99.90;;;;;;4165086;28;20063;-71
2020/12/10 05:47:13;;;;;;;34.30;18.52;;;1.40;99.90;;;;;;4162342;28;20120;-70
2020/12/10 05:49:15;;;;;;;33.95;18.10;;;1.40;99.90;;;;;;4144247;28;20228;-70
2020/12/10 05:51:21;;;;;;;35.00;18.95;;;1.40;99.90;;;;;;4155644;28;20042;-70
2020/12/10 05:53:29;;;;;;;33.08;18.30;;;1.40;99.90;;;;;;4155344;28;20155;-70
2020/12/10 05:55:31;;;;;;;32.83;19.35;;;1.40;99.90;;;;;;4157196;28;20488;-70
2020/12/10 05:57:33;;;;;;;39.97;20.27;;;1.40;99.90;;;;;;4160486;28;20057;-70
2020/12/10 05:59:33;;;;;;;36.60;19.80;;;1.40;99.90;;;;;;4160488;28;20343;-71
2020/12/10 06:01:35;;;;;;;34.75;19.23;;;1.40;99.90;;;;;;4158611;28;20094;-70
2020/12/10 06:03:36;;;;;;;41.08;23.50;;;1.40;99.90;;;;;;4158701;28;20034;-70
2020/12/10 06:05:38;;;;;;;38.30;19.65;;;1.50;99.90;;;;;;4160055;28;20692;-70
2020/12/10 06:07:39;;;;;;;32.85;18.67;;;1.50;99.90;;;;;;4159898;28;20033;-70
2020/12/10 06:09:42;;;;;;;33.65;18.75;;;1.50;99.90;;;;;;4157906;28;20030;-70
2020/12/10 06:11:42;;;;;;;35.30;19.80;;;1.50;99.90;;;;;;4158884;28;20044;-70
2020/12/10 06:13:44;;;;;;;39.05;20.83;;;1.50;99.90;;;;;;4147933;28;20482;-70
2020/12/10 06:15:44;;;;;;;33.15;19.25;;;1.50;99.90;;;;;;4159292;28;20051;-70
2020/12/10 06:18:11;;;;;;;35.80;20.42;;;1.50;99.90;;;;;;4157851;28;20193;-70
2020/12/10 06:20:31;;;;;;;33.55;18.55;;;1.50;99.90;;;;;;4137165;28;20044;-70
2020/12/10 06:22:33;;;;;;;34.40;19.38;;;1.50;99.90;;;;;;4151269;28;20057;-70
2020/12/10 06:24:35;;;;;;;35.63;19.98;;;1.50;99.90;;;;;;4162912;28;20041;-70
2020/12/10 06:26:35;;;;;;;42.65;22.40;;;1.40;99.90;;;;;;4158538;28;20379;-70
2020/12/10 06:28:36;;;;;;;40.22;21.83;;;1.40;99.90;;;;;;4161303;28;20520;-70
2020/12/10 06:30:37;;;;;;;36.80;20.98;;;1.50;99.90;;;;;;4158686;28;20052;-70
2020/12/10 06:32:45;;;;;;;37.83;20.25;;;1.50;99.90;;;;;;4158324;28;20112;-70
2020/12/10 06:34:51;;;;;;;40.85;21.33;;;1.50;99.90;;;;;;4153839;28;20501;-70
2020/12/10 06:37:12;;;;;;;38.03;21.23;;;1.40;99.90;;;;;;4158273;28;20051;-70
2020/12/10 06:39:12;;;;;;;39.90;21.17;;;1.50;99.90;;;;;;4157967;28;20041;-70
2020/12/10 06:41:13;;;;;;;39.80;20.38;;;1.40;99.90;;;;;;4159908;28;20087;-70
2020/12/10 06:43:13;;;;;;;37.78;20.10;;;1.40;99.90;;;;;;4159585;28;20378;-72
2020/12/10 06:45:31;;;;;;;39.42;20.77;;;1.40;99.90;;;;;;4157784;28;20038;-72
2020/12/10 06:47:41;;;;;;;37.25;20.35;;;1.50;99.90;;;;;;4163516;28;20103;-72
2020/12/10 06:49:43;;;;;;;38.10;20.00;;;1.40;99.90;;;;;;4163312;28;20049;-71
2020/12/10 06:52:06;;;;;;;41.70;20.83;;;1.40;99.90;;;;;;4158497;28;20152;-72
2020/12/10 06:54:08;;;;;;;34.60;19.42;;;1.40;99.90;;;;;;4160679;28;20304;-72
2020/12/10 06:56:13;;;;;;;34.63;19.30;;;1.40;99.90;;;;;;4159484;28;20381;-72
2020/12/10 06:58:15;;;;;;;38.75;20.88;;;1.40;99.90;;;;;;4159488;28;20112;-72
2020/12/10 07:00:41;;;;;;;37.87;21.03;;;1.50;99.90;;;;;;4159478;28;20040;-72
2020/12/10 07:02:42;;;;;;;34.47;19.05;;;1.40;99.90;;;;;;4162359;28;20276;-70
2020/12/10 07:04:50;;;;;;;36.88;20.05;;;1.40;99.90;;;;;;4159302;28;20543;-70
2020/12/10 07:07:17;;;;;;;38.20;20.70;;;1.50;99.90;;;;;;4161620;28;20029;-70
2020/12/10 07:09:18;;;;;;;35.35;19.63;;;1.50;99.90;;;;;;4157489;28;20033;-70
2020/12/10 07:11:39;;;;;;;34.10;18.50;;;1.50;99.90;;;;;;4155973;28;20038;-72
2020/12/10 07:13:40;;;;;;;34.10;18.70;;;1.50;99.90;;;;;;4160552;28;20030;-72
2020/12/10 07:15:51;;;;;;;35.30;19.05;;;1.50;99.90;;;;;;4172724;28;20029;-72
2020/12/10 07:17:52;;;;;;;33.65;19.13;;;1.50;99.90;;;;;;4164506;28;20033;-73
2020/12/10 07:19:52;;;;;;;31.85;18.02;;;1.50;99.90;;;;;;4165304;28;20037;-72
2020/12/10 07:21:53;;;;;;;34.70;18.58;;;1.50;99.90;;;;;;4160051;28;20043;-72
2020/12/10 07:23:54;;;;;;;31.23;16.97;;;1.50;99.90;;;;;;4160977;28;20048;-72
2020/12/10 07:25:55;;;;;;;30.60;16.42;;;1.50;99.90;;;;;;4157693;28;20125;-72
2020/12/10 07:27:56;;;;;;;36.97;18.67;;;1.50;99.90;;;;;;4161589;28;20090;-73
2020/12/10 07:29:56;;;;;;;37.42;19.52;;;1.50;99.90;;;;;;4174695;28;20029;-72
2020/12/10 07:31:57;;;;;;;39.08;21.05;;;1.50;99.90;;;;;;4172272;28;20039;-72
2020/12/10 07:34:02;;;;;;;38.22;19.33;;;1.50;99.90;;;;;;4160635;28;20029;-72
2020/12/10 07:36:07;;;;;;;33.35;18.48;;;1.60;99.90;;;;;;4167077;28;20034;-72
2020/12/10 07:38:13;;;;;;;34.92;19.63;;;1.60;99.90;;;;;;4162842;28;20136;-71
2020/12/10 07:40:16;;;;;;;32.42;17.90;;;1.60;99.90;;;;;;4160613;28;20096;-72
2020/12/10 07:42:19;;;;;;;34.05;18.25;;;1.60;99.90;;;;;;4162464;28;20076;-72
2020/12/10 07:44:28;;;;;;;33.20;17.05;;;1.60;99.90;;;;;;4156664;28;20041;-72
2020/12/10 07:46:35;;;;;;;31.35;17.63;;;1.60;99.90;;;;;;4168717;28;20695;-72
2020/12/10 07:48:37;;;;;;;31.40;17.50;;;1.60;99.90;;;;;;4163054;28;20156;-72
2020/12/10 07:50:38;;;;;;;34.17;18.13;;;1.60;99.90;;;;;;4164989;28;20033;-72
2020/12/10 07:52:43;;;;;;;31.15;16.95;;;1.60;99.90;;;;;;4162056;28;20030;-72
2020/12/10 07:54:53;;;;;;;34.90;18.23;;;1.60;99.90;;;;;;4145022;28;20045;-72
2020/12/10 07:56:56;;;;;;;35.10;18.50;;;1.70;99.90;;;;;;4139237;28;20084;-72
2020/12/10 07:59:09;;;;;;;32.25;17.42;;;1.60;99.90;;;;;;4158008;28;20078;-71
2020/12/10 08:01:12;;;;;;;30.08;16.48;;;1.70;99.90;;;;;;4164234;28;20452;-72
2020/12/10 08:03:26;;;;;;;34.22;16.92;;;1.70;99.90;;;;;;4164960;28;20041;-71
2020/12/10 08:05:27;;;;;;;34.63;17.17;;;1.70;99.90;;;;;;4160272;28;20144;-72
2020/12/10 08:07:29;;;;;;;33.60;17.92;;;1.80;99.90;;;;;;4146776;28;20034;-72
2020/12/10 08:09:29;;;;;;;32.10;18.73;;;1.80;99.90;;;;;;4172418;28;20098;-72
2020/12/10 08:11:30;;;;;;;32.97;17.75;;;1.90;99.90;;;;;;4175276;28;20112;-72
2020/12/10 08:13:30;;;;;;;31.33;17.23;;;1.90;99.90;;;;;;4164190;28;20037;-72
2020/12/10 08:15:31;;;;;;;34.88;18.67;;;2.00;99.90;;;;;;4162712;28;20026;-72
2020/12/10 08:17:32;;;;;;;32.97;18.45;;;2.10;99.90;;;;;;4165937;28;20497;-72
2020/12/10 08:19:34;;;;;;;33.00;17.23;;;2.10;99.90;;;;;;4164093;28;20029;-72
2020/12/10 08:21:34;;;;;;;32.33;18.33;;;2.10;99.90;;;;;;4155713;28;20034;-72
2020/12/10 08:23:44;;;;;;;33.53;17.65;;;2.20;99.90;;;;;;4160445;28;20044;-72
2020/12/10 08:25:46;;;;;;;35.05;18.02;;;2.10;99.90;;;;;;4169601;28;20028;-72
2020/12/10 08:27:47;;;;;;;33.92;17.85;;;2.10;99.90;;;;;;4165787;28;20045;-72
2020/12/10 08:30:03;;;;;;;37.40;19.77;;;2.10;99.90;;;;;;4162232;28;20091;-72
2020/12/10 08:32:06;;;;;;;34.53;17.23;;;2.10;99.90;;;;;;4160267;28;20033;-72
2020/12/10 08:34:16;;;;;;;32.22;16.77;;;2.10;99.90;;;;;;4164352;28;20392;-72
2020/12/10 08:36:32;;;;;;;35.50;16.90;;;2.10;99.90;;;;;;4169130;28;20117;-72
2020/12/10 08:38:32;;;;;;;33.10;17.15;;;2.10;99.90;;;;;;4161673;28;20029;-72
2020/12/10 08:40:33;;;;;;;34.05;17.13;;;2.10;99.90;;;;;;4162728;28;20532;-72
2020/12/10 08:42:34;;;;;;;35.88;19.15;;;2.10;99.90;;;;;;4160358;28;20057;-72
2020/12/10 08:44:50;;;;;;;37.13;19.70;;;2.10;99.90;;;;;;4166667;28;20090;-72
2020/12/10 08:46:59;;;;;;;36.42;18.92;;;2.10;99.90;;;;;;4172776;28;20025;-72
2020/12/10 08:49:19;;;;;;;34.72;18.13;;;2.10;99.90;;;;;;4155829;28;20072;-72
2020/12/10 08:51:20;;;;;;;33.65;19.33;;;2.10;99.90;;;;;;4159771;28;20045;-72
2020/12/10 08:53:23;;;;;;;35.78;19.27;;;2.20;99.90;;;;;;4165300;28;20025;-72
2020/12/10 08:55:23;;;;;;;32.45;19.48;;;2.10;99.90;;;;;;4162688;28;20095;-72
2020/12/10 08:57:24;;;;;;;36.63;19.13;;;2.20;99.90;;;;;;4158358;28;20476;-72
2020/12/10 08:59:24;;;;;;;34.65;18.40;;;2.20;99.90;;;;;;4161218;28;20034;-72
2020/12/10 09:01:25;;;;;;;31.45;17.33;;;2.20;99.90;;;;;;4164795;28;20061;-72
2020/12/10 09:03:26;;;;;;;39.10;18.67;;;2.20;99.90;;;;;;4163905;28;20176;-72
2020/12/10 09:05:26;;;;;;;35.15;19.35;;;2.20;99.90;;;;;;4160559;28;20030;-72
2020/12/10 09:07:27;;;;;;;30.90;17.25;;;2.20;99.90;;;;;;4161720;28;20493;-72
2020/12/10 09:09:27;;;;;;;34.63;17.75;;;2.20;99.90;;;;;;4159413;28;20141;-71
2020/12/10 09:11:28;;;;;;;30.38;17.70;;;2.30;99.90;;;;;;4159790;28;20040;-72
2020/12/10 09:13:28;;;;;;;33.63;17.90;;;2.30;99.90;;;;;;4159432;28;20159;-71
2020/12/10 09:15:29;;;;;;;32.42;18.40;;;2.30;99.90;;;;;;4159799;28;20038;-73
2020/12/10 09:17:30;;;;;;;32.90;18.60;;;2.30;99.90;;;;;;4160671;28;20029;-71
2020/12/10 09:19:30;;;;;;;29.58;17.52;;;2.30;99.90;;;;;;4164378;28;20053;-71
2020/12/10 09:21:37;;;;;;;33.40;18.33;;;2.30;99.90;;;;;;4158616;28;20037;-72
2020/12/10 09:23:44;;;;;;;36.50;19.15;;;2.30;99.90;;;;;;4160310;28;20121;-72
2020/12/10 09:25:44;;;;;;;32.58;18.00;;;2.30;99.90;;;;;;4159677;28;20497;-72
2020/12/10 09:27:45;;;;;;;35.42;19.13;;;2.40;99.90;;;;;;4160080;28;20030;-71
2020/12/10 09:29:46;;;;;;;37.15;19.98;;;2.50;99.90;;;;;;4166930;28;20361;-71
2020/12/10 09:31:52;;;;;;;36.00;20.08;;;2.50;99.90;;;;;;4160513;28;20091;-73
2020/12/10 09:33:52;;;;;;;34.05;19.33;;;2.50;99.90;;;;;;4160870;28;20025;-71
2020/12/10 09:35:53;;;;;;;38.58;21.83;;;2.60;99.90;;;;;;4160902;28;20528;-73
2020/12/10 09:37:54;;;;;;;42.05;21.33;;;2.70;99.90;;;;;;4159592;28;20052;-72
2020/12/10 09:39:54;;;;;;;38.33;21.80;;;2.80;99.90;;;;;;4159655;28;20080;-73
2020/12/10 09:41:55;;;;;;;41.35;22.65;;;2.80;99.90;;;;;;4161776;28;20036;-71
2020/12/10 09:43:56;;;;;;;38.05;20.83;;;2.90;99.90;;;;;;4160649;28;20088;-73
2020/12/10 09:46:14;;;;;;;37.20;19.85;;;3.10;99.90;;;;;;4168821;28;20029;-73
2020/12/10 09:48:15;;;;;;;39.22;20.70;;;3.20;99.90;;;;;;4159935;28;20060;-72
2020/12/10 09:50:23;;;;;;;34.45;20.30;;;3.20;99.90;;;;;;4164866;28;20058;-72
2020/12/10 09:52:25;;;;;;;39.50;20.98;;;3.30;99.90;;;;;;4155929;28;20025;-72
2020/12/10 09:54:40;;;;;;;33.23;19.83;;;3.30;99.90;;;;;;4159580;28;20033;-72
2020/12/10 09:59:01;;;;;;;33.22;19.17;;;3.40;99.90;;;;;;4161513;28;20045;-73
2020/12/10 10:01:02;;;;;;;37.58;20.25;;;3.40;99.90;;;;;;4154737;28;20037;-73
2020/12/10 10:03:07;;;;;;;34.13;20.85;;;3.40;99.90;;;;;;4159132;28;20045;-75
2020/12/10 10:05:07;;;;;;;36.03;20.40;;;3.50;99.90;;;;;;4158186;28;20041;-72
2020/12/10 10:07:08;;;;;;;37.63;20.90;;;3.40;99.90;;;;;;4170647;28;20187;-72
2020/12/10 10:09:09;;;;;;;37.95;19.23;;;3.50;99.90;;;;;;4158268;28;20116;-72
2020/12/10 10:11:09;;;;;;;37.63;22.02;;;3.50;99.90;;;;;;4153464;28;20509;-71
2020/12/10 10:13:10;;;;;;;38.20;22.05;;;3.40;99.90;;;;;;4160240;28;20044;-71
2020/12/10 10:15:11;;;;;;;33.30;19.10;;;3.40;99.90;;;;;;4164265;28;20111;-72
2020/12/10 10:17:11;;;;;;;35.78;20.15;;;3.40;99.90;;;;;;4163667;28;20124;-72
2020/12/10 10:19:12;;;;;;;33.90;19.50;;;3.40;99.90;;;;;;4160873;28;21302;-72
2020/12/10 10:21:18;;;;;;;33.85;21.08;;;3.50;99.90;;;;;;4159599;28;20045;-72
2020/12/10 10:23:19;;;;;;;34.22;19.55;;;3.50;99.90;;;;;;4158879;28;20163;-72
2020/12/10 10:25:20;;;;;;;31.67;18.17;;;3.50;99.90;;;;;;4160786;28;20091;-72
2020/12/10 10:27:21;;;;;;;34.22;19.10;;;3.60;99.90;;;;;;4167226;28;20052;-72
2020/12/10 10:29:22;;;;;;;35.60;20.00;;;3.60;99.90;;;;;;4160105;28;20029;-72
2020/12/10 10:31:22;;;;;;;35.85;19.98;;;3.60;99.90;;;;;;4159522;28;20029;-72
2020/12/10 10:33:23;;;;;;;37.80;20.50;;;3.60;99.90;;;;;;4160153;28;20025;-72